createdAt,value
2023-04-07T00:00:28.174Z,99251.19
2023-04-07T00:02:54.749Z,99241.75
2023-04-07T00:05:21.458Z,99240.28
2023-04-07T00:07:55.853Z,99241.13
2023-04-07T00:10:23.657Z,99243.34
2023-04-07T00:12:50.250Z,99238.22
2023-04-07T00:15:16.742Z,99240.63
2023-04-07T00:17:43.316Z,99234.53
2023-04-07T00:20:10.207Z,99231.97
2023-04-07T00:22:36.668Z,99228.91
2023-04-07T00:25:03.206Z,99221.16
2023-04-07T00:27:29.620Z,99222.28
2023-04-07T00:29:56.347Z,99223.88
2023-04-07T00:32:24.354Z,99225.13
2023-04-07T00:34:50.991Z,99221.59
2023-04-07T00:37:17.486Z,99227.78
2023-04-07T00:39:43.982Z,99217.16
2023-04-07T00:42:10.925Z,99225.28
2023-04-07T00:44:37.434Z,99214.44
2023-04-07T00:47:04.395Z,99206.00
2023-04-07T00:49:31.788Z,99195.88
2023-04-07T00:51:58.656Z,99203.16
2023-04-07T00:54:25.433Z,99194.00
2023-04-07T00:56:53.471Z,99193.19
2023-04-07T00:59:20.070Z,99205.34
2023-04-07T01:01:59.154Z,99189.63
2023-04-07T01:04:33.247Z,99185.41
2023-04-07T01:07:05.348Z,99195.63
2023-04-07T01:09:37.645Z,99187.81
2023-04-07T01:12:18.701Z,99189.94
2023-04-07T01:14:52.117Z,99189.78
2023-04-07T01:17:19.470Z,99180.97
2023-04-07T01:19:52.672Z,99180.31
2023-04-07T01:22:24.303Z,99178.50
2023-04-07T01:25:11.323Z,99173.75
2023-04-07T01:28:10.593Z,99173.22
2023-04-07T01:30:40.452Z,99169.41
2023-04-07T01:33:07.624Z,99166.91
2023-04-07T01:35:35.858Z,99167.13
2023-04-07T01:38:03.333Z,99172.25
2023-04-07T01:40:30.087Z,99173.44
2023-04-07T01:42:59.941Z,99174.25
2023-04-07T01:45:27.634Z,99170.72
2023-04-07T01:47:55.230Z,99167.69
2023-04-07T01:50:22.165Z,99171.34
2023-04-07T01:52:48.806Z,99171.81
2023-04-07T01:55:15.603Z,99172.41
2023-04-07T01:57:42.153Z,99165.06
2023-04-07T02:00:08.986Z,99164.88
2023-04-07T02:02:37.017Z,99163.38
2023-04-07T02:05:06.021Z,99162.13
2023-04-07T02:07:41.328Z,99168.47
2023-04-07T02:10:11.395Z,99179.13
2023-04-07T02:12:38.231Z,99167.47
2023-04-07T02:15:08.746Z,99172.66
2023-04-07T02:17:37.906Z,99174.63
2023-04-07T02:20:08.971Z,99167.88
2023-04-07T02:22:35.856Z,99171.19
2023-04-07T02:25:02.254Z,99165.31
2023-04-07T02:27:28.707Z,99172.47
2023-04-07T02:29:55.394Z,99172.84
2023-04-07T02:32:21.828Z,99171.88
2023-04-07T02:34:48.204Z,99174.81
2023-04-07T02:37:14.732Z,99171.94
2023-04-07T02:39:41.540Z,99171.34
2023-04-07T02:42:07.910Z,99173.09
2023-04-07T02:44:34.344Z,99169.38
2023-04-07T02:47:00.753Z,99168.13
2023-04-07T02:49:27.180Z,99174.03
2023-04-07T02:51:53.574Z,99164.34
2023-04-07T02:54:20.015Z,99161.81
2023-04-07T02:56:46.401Z,99168.75
2023-04-07T02:59:12.787Z,99168.75
2023-04-07T03:01:40.402Z,99163.56
2023-04-07T03:04:07.011Z,99158.44
2023-04-07T03:06:34.044Z,99163.59
2023-04-07T03:09:00.447Z,99158.50
2023-04-07T03:11:27.153Z,99156.78
2023-04-07T03:13:53.819Z,99166.09
2023-04-07T03:16:20.617Z,99159.91
2023-04-07T03:18:47.061Z,99153.47
2023-04-07T03:21:13.510Z,99159.03
2023-04-07T03:23:40.073Z,99159.72
2023-04-07T03:26:06.713Z,99157.38
2023-04-07T03:28:33.150Z,99157.28
2023-04-07T03:30:59.635Z,99159.91
2023-04-07T03:33:26.050Z,99151.88
2023-04-07T03:35:52.519Z,99169.00
2023-04-07T03:38:18.997Z,99174.59
2023-04-07T03:40:45.452Z,99170.84
2023-04-07T03:43:14.994Z,99172.09
2023-04-07T03:45:42.175Z,99172.22
2023-04-07T03:48:12.236Z,99178.22
2023-04-07T03:50:39.977Z,99182.19
2023-04-07T03:53:06.750Z,99177.72
2023-04-07T03:55:33.997Z,99167.34
2023-04-07T03:58:00.618Z,99167.34
2023-04-07T04:00:27.395Z,99163.31
2023-04-07T04:02:53.948Z,99163.53
2023-04-07T04:05:20.524Z,99160.00
2023-04-07T04:07:46.982Z,99158.25
2023-04-07T04:10:13.500Z,99154.31
2023-04-07T04:12:41.622Z,99155.41
2023-04-07T04:15:08.593Z,99162.06
2023-04-07T04:17:35.151Z,99158.63
2023-04-07T04:20:01.702Z,99159.03
2023-04-07T04:22:28.180Z,99161.53
2023-04-07T04:24:54.587Z,99160.22
2023-04-07T04:27:21.171Z,99154.22
2023-04-07T04:29:48.784Z,99154.38
2023-04-07T04:32:15.333Z,99163.34
2023-04-07T04:34:42.150Z,99162.56
2023-04-07T04:37:08.606Z,99163.63
2023-04-07T04:39:35.078Z,99159.59
2023-04-07T04:42:02.055Z,99166.84
2023-04-07T04:44:30.089Z,99153.16
2023-04-07T04:46:56.681Z,99160.41
2023-04-07T04:49:23.151Z,99160.44
2023-04-07T04:51:49.606Z,99150.63
2023-04-07T04:54:16.709Z,99166.31
2023-04-07T04:56:43.174Z,99164.97
2023-04-07T04:59:09.633Z,99165.94
2023-04-07T05:01:36.063Z,99159.31
2023-04-07T05:04:02.618Z,99158.31
2023-04-07T05:06:29.237Z,99158.13
2023-04-07T05:08:55.717Z,99165.94
2023-04-07T05:11:22.281Z,99160.28
2023-04-07T05:13:48.683Z,99157.75
2023-04-07T05:16:15.276Z,99156.41
2023-04-07T05:18:41.741Z,99159.19
2023-04-07T05:21:08.226Z,99160.41
2023-04-07T05:23:35.765Z,99145.25
2023-04-07T05:26:02.265Z,99151.38
2023-04-07T05:28:28.657Z,99148.66
2023-04-07T05:30:55.166Z,99149.47
2023-04-07T05:33:21.564Z,99149.34
2023-04-07T05:35:48.471Z,99152.72
2023-04-07T05:38:16.648Z,99160.91
2023-04-07T05:40:43.083Z,99152.38
2023-04-07T05:43:09.561Z,99156.72
2023-04-07T05:45:36.152Z,99154.25
2023-04-07T05:48:02.587Z,99151.13
2023-04-07T05:50:29.122Z,99152.72
2023-04-07T05:52:55.585Z,99145.28
2023-04-07T05:55:22.032Z,99149.47
2023-04-07T05:57:49.316Z,99147.72
2023-04-07T06:00:16.051Z,99151.63
2023-04-07T06:02:43.687Z,99160.16
2023-04-07T06:05:10.597Z,99163.69
2023-04-07T06:07:37.155Z,99160.47
2023-04-07T06:10:03.812Z,99158.81
2023-04-07T06:12:30.244Z,99170.75
2023-04-07T06:14:56.685Z,99178.00
2023-04-07T06:17:23.455Z,99179.19
2023-04-07T06:19:50.038Z,99170.66
2023-04-07T06:22:16.480Z,99167.09
2023-04-07T06:24:42.899Z,99164.75
2023-04-07T06:27:09.368Z,99168.97
2023-04-07T06:29:36.607Z,99178.00
2023-04-07T06:32:03.094Z,99180.53
2023-04-07T06:34:29.626Z,99179.38
2023-04-07T06:36:57.391Z,99180.94
2023-04-07T06:39:27.040Z,99169.91
2023-04-07T06:41:53.749Z,99178.34
2023-04-07T06:44:20.156Z,99185.41
2023-04-07T06:46:49.394Z,99185.97
2023-04-07T06:49:16.499Z,99192.25
2023-04-07T06:51:42.880Z,99195.59
2023-04-07T06:54:12.853Z,99191.69
2023-04-07T06:56:43.366Z,99198.25
2023-04-07T06:59:10.000Z,99199.63
2023-04-07T07:01:37.705Z,99204.59
2023-04-07T07:04:06.160Z,99202.50
2023-04-07T07:06:32.895Z,99200.16
2023-04-07T07:09:00.322Z,99197.13
2023-04-07T07:11:27.237Z,99204.34
2023-04-07T07:13:53.599Z,99204.00
2023-04-07T07:16:20.393Z,99200.16
2023-04-07T07:18:46.868Z,99203.53
2023-04-07T07:21:13.423Z,99202.13
2023-04-07T07:23:39.812Z,99195.97
2023-04-07T07:26:06.449Z,99194.97
2023-04-07T07:28:32.835Z,99197.75
2023-04-07T07:30:59.250Z,99199.44
2023-04-07T07:33:26.258Z,99202.53
2023-04-07T07:35:52.728Z,99207.47
2023-04-07T07:38:19.512Z,99208.19
2023-04-07T07:40:47.104Z,99207.47
2023-04-07T07:43:13.564Z,99211.78
2023-04-07T07:45:39.965Z,99212.25
2023-04-07T07:48:06.441Z,99207.81
2023-04-07T07:50:32.868Z,99219.66
2023-04-07T07:52:59.314Z,99214.88
2023-04-07T07:55:25.806Z,99219.81
2023-04-07T07:57:52.230Z,99226.78
2023-04-07T08:00:18.815Z,99229.78
2023-04-07T08:02:45.314Z,99230.06
2023-04-07T08:05:12.771Z,99231.78
2023-04-07T08:07:39.440Z,99226.50
2023-04-07T08:10:06.424Z,99231.44
2023-04-07T08:12:32.822Z,99227.03
2023-04-07T08:14:59.217Z,99235.03
2023-04-07T08:17:25.799Z,99228.66
2023-04-07T08:19:52.298Z,99240.03
2023-04-07T08:22:20.967Z,99241.56
2023-04-07T08:24:47.910Z,99247.72
2023-04-07T08:27:14.336Z,99247.44
2023-04-07T08:29:40.769Z,99250.94
2023-04-07T08:32:07.229Z,99250.38
2023-04-07T08:34:33.683Z,99255.84
2023-04-07T08:37:00.203Z,99261.91
2023-04-07T08:39:26.851Z,99260.50
2023-04-07T08:41:54.129Z,99269.75
2023-04-07T08:44:22.648Z,99267.47
2023-04-07T08:46:51.176Z,99265.69
2023-04-07T08:49:17.936Z,99266.09
2023-04-07T08:51:48.382Z,99266.00
2023-04-07T08:54:18.986Z,99278.19
2023-04-07T08:56:45.728Z,99264.50
2023-04-07T08:59:14.054Z,99271.38
2023-04-07T09:01:41.461Z,99272.59
2023-04-07T09:04:09.517Z,99274.44
2023-04-07T09:06:36.754Z,99274.63
2023-04-07T09:09:05.890Z,99274.06
2023-04-07T09:11:38.794Z,99274.38
2023-04-07T09:14:05.674Z,99277.44
2023-04-07T09:16:32.482Z,99272.47
2023-04-07T09:18:59.324Z,99281.88
2023-04-07T09:21:27.078Z,99282.88
2023-04-07T09:23:53.576Z,99285.84
2023-04-07T09:26:24.306Z,99287.69
2023-04-07T09:29:02.788Z,99296.81
2023-04-07T09:31:48.578Z,99297.13
2023-04-07T09:34:26.119Z,99288.63
2023-04-07T09:36:52.553Z,99295.34
2023-04-07T09:39:19.552Z,99293.19
2023-04-07T09:41:45.991Z,99294.66
2023-04-07T09:44:12.685Z,99296.75
2023-04-07T09:46:58.737Z,99293.69
2023-04-07T09:49:26.166Z,99296.75
2023-04-07T09:52:04.894Z,99300.00
2023-04-07T09:54:41.676Z,99297.97
2023-04-07T09:57:09.625Z,99293.69
2023-04-07T09:59:42.476Z,99294.22
2023-04-07T10:02:09.255Z,99282.28
2023-04-07T10:04:36.068Z,99289.09
2023-04-07T10:07:03.671Z,99284.59
2023-04-07T10:09:30.442Z,99293.66
2023-04-07T10:11:58.205Z,99300.25
2023-04-07T10:14:30.934Z,99296.75
2023-04-07T10:16:59.372Z,99296.13
2023-04-07T10:19:26.914Z,99297.31
2023-04-07T10:21:53.985Z,99289.97
2023-04-07T10:24:32.424Z,99298.84
2023-04-07T10:27:03.337Z,99302.28
2023-04-07T10:29:31.660Z,99300.22
2023-04-07T10:31:59.511Z,99302.19
2023-04-07T10:35:05.173Z,99301.56
2023-04-07T10:37:33.422Z,99305.22
2023-04-07T10:40:18.949Z,99302.28
2023-04-07T10:42:49.744Z,99308.81
2023-04-07T10:45:16.278Z,99299.69
2023-04-07T10:47:57.860Z,99306.66
2023-04-07T10:50:25.163Z,99313.56
2023-04-07T10:53:08.334Z,99311.38
2023-04-07T10:55:36.793Z,99304.00
2023-04-07T10:58:22.848Z,99314.28
2023-04-07T11:01:07.849Z,99313.56
2023-04-07T11:03:37.002Z,99305.78
2023-04-07T11:06:10.575Z,99306.97
2023-04-07T11:08:42.147Z,99314.47
2023-04-07T11:11:10.195Z,99309.66
2023-04-07T11:13:50.269Z,99310.09
2023-04-07T11:16:18.625Z,99309.56
2023-04-07T11:18:47.608Z,99307.66
2023-04-07T11:21:18.482Z,99313.97
2023-04-07T11:23:46.688Z,99306.75
2023-04-07T11:26:14.529Z,99310.44
2023-04-07T11:28:54.164Z,99306.06
2023-04-07T11:31:24.954Z,99318.28
2023-04-07T11:33:55.744Z,99311.59
2023-04-07T11:36:28.923Z,99315.31
2023-04-07T11:38:57.504Z,99307.81
2023-04-07T11:41:26.040Z,99310.03
2023-04-07T11:44:08.766Z,99308.50
2023-04-07T11:46:36.116Z,99309.06
2023-04-07T11:49:13.392Z,99307.09
2023-04-07T11:51:40.803Z,99299.19
2023-04-07T11:54:07.257Z,99305.28
2023-04-07T11:56:47.723Z,99306.88
2023-04-07T11:59:22.902Z,99304.75
2023-04-07T12:01:50.730Z,99302.69
2023-04-07T12:04:17.725Z,99306.59
2023-04-07T12:06:46.487Z,99305.50
2023-04-07T12:09:27.960Z,99305.56
2023-04-07T12:11:54.435Z,99294.53
2023-04-07T12:14:20.996Z,99300.44
2023-04-07T12:16:47.478Z,99293.59
2023-04-07T12:19:13.951Z,99293.34
2023-04-07T12:21:40.922Z,99297.78
2023-04-07T12:24:07.357Z,99298.69
2023-04-07T12:26:33.788Z,99298.84
2023-04-07T12:29:05.289Z,99300.41
2023-04-07T12:31:32.904Z,99300.66
2023-04-07T12:33:59.641Z,99303.81
2023-04-07T12:36:27.611Z,99299.78
2023-04-07T12:38:54.694Z,99302.13
2023-04-07T12:41:21.194Z,99289.13
2023-04-07T12:43:47.669Z,99292.34
2023-04-07T12:46:14.282Z,99287.69
2023-04-07T12:48:43.419Z,99298.25
2023-04-07T12:51:09.928Z,99293.59
2023-04-07T12:53:36.769Z,99293.00
2023-04-07T12:56:03.309Z,99296.59
2023-04-07T12:58:29.891Z,99291.16
2023-04-07T13:00:58.684Z,99293.97
2023-04-07T13:03:25.347Z,99291.88
2023-04-07T13:05:54.178Z,99289.03
2023-04-07T13:08:21.476Z,99288.66
2023-04-07T13:10:47.980Z,99285.34
2023-04-07T13:13:14.496Z,99290.00
2023-04-07T13:15:41.326Z,99289.16
2023-04-07T13:18:08.209Z,99289.13
2023-04-07T13:20:34.772Z,99289.34
2023-04-07T13:23:07.587Z,99293.75
2023-04-07T13:25:36.273Z,99290.88
2023-04-07T13:28:02.749Z,99291.31
2023-04-07T13:30:29.160Z,99297.22
2023-04-07T13:32:55.629Z,99295.50
2023-04-07T13:35:22.208Z,99309.69
2023-04-07T13:37:48.679Z,99319.78
2023-04-07T13:40:15.368Z,99314.16
2023-04-07T13:42:42.014Z,99324.13
2023-04-07T13:45:08.891Z,99336.25
2023-04-07T13:47:35.518Z,99314.84
2023-04-07T13:50:03.116Z,99308.28
2023-04-07T13:52:30.040Z,99306.69
2023-04-07T13:54:57.728Z,99307.28
2023-04-07T13:57:24.263Z,99306.63
2023-04-07T13:59:54.282Z,99306.81
2023-04-07T14:02:21.178Z,99310.22
2023-04-07T14:04:47.835Z,99309.47
2023-04-07T14:07:14.279Z,99309.34
2023-04-07T14:09:42.708Z,99317.09
2023-04-07T14:12:09.490Z,99314.03
2023-04-07T14:14:37.568Z,99316.97
2023-04-07T14:17:04.369Z,99319.88
2023-04-07T14:19:31.165Z,99309.88
2023-04-07T14:21:57.609Z,99307.19
2023-04-07T14:24:24.356Z,99313.53
2023-04-07T14:26:51.215Z,99317.81
2023-04-07T14:29:17.777Z,99308.28
2023-04-07T14:31:45.207Z,99316.66
2023-04-07T14:34:14.533Z,99308.97
2023-04-07T14:36:40.968Z,99308.56
2023-04-07T14:39:07.452Z,99307.16
2023-04-07T14:41:33.965Z,99307.56
2023-04-07T14:44:00.405Z,99302.81
2023-04-07T14:46:27.498Z,99307.38
2023-04-07T14:48:53.995Z,99301.03
2023-04-07T14:51:21.316Z,99302.81
2023-04-07T14:53:53.403Z,99305.66
2023-04-07T14:56:21.248Z,99301.78
2023-04-07T14:58:47.677Z,99307.94
2023-04-07T15:01:14.244Z,99307.84
2023-04-07T15:03:40.831Z,99303.41
2023-04-07T15:06:11.724Z,99301.69
2023-04-07T15:08:38.344Z,99303.88
2023-04-07T15:11:06.232Z,99302.00
2023-04-07T15:13:32.635Z,99301.63
2023-04-07T15:16:09.267Z,99304.72
2023-04-07T15:18:35.956Z,99304.59
2023-04-07T15:21:02.390Z,99303.28
2023-04-07T15:23:28.967Z,99298.75
2023-04-07T15:25:57.016Z,99303.53
2023-04-07T15:28:23.818Z,99303.28
2023-04-07T15:30:50.496Z,99298.28
2023-04-07T15:33:17.553Z,99299.59
2023-04-07T15:35:44.641Z,99300.53
2023-04-07T15:38:11.458Z,99302.38
2023-04-07T15:40:38.900Z,99302.94
2023-04-07T15:43:06.773Z,99304.94
2023-04-07T15:45:33.385Z,99310.31
2023-04-07T15:47:59.868Z,99306.50
2023-04-07T15:50:28.027Z,99300.59
2023-04-07T15:52:54.443Z,99297.56
2023-04-07T15:55:20.871Z,99306.69
2023-04-07T15:57:47.292Z,99306.97
2023-04-07T16:00:14.551Z,99309.09
2023-04-07T16:02:41.793Z,99317.34
2023-04-07T16:05:08.502Z,99319.28
2023-04-07T16:07:34.995Z,99322.38
2023-04-07T16:10:01.422Z,99316.03
2023-04-07T16:12:27.827Z,99318.00
2023-04-07T16:14:54.446Z,99320.97
2023-04-07T16:17:21.092Z,99322.69
2023-04-07T16:19:47.524Z,99327.97
2023-04-07T16:22:13.998Z,99334.72
2023-04-07T16:24:40.507Z,99327.38
2023-04-07T16:27:06.944Z,99331.28
2023-04-07T16:29:33.363Z,99328.47
2023-04-07T16:31:59.951Z,99341.94
2023-04-07T16:34:26.402Z,99353.09
2023-04-07T16:36:52.821Z,99345.94
2023-04-07T16:39:19.291Z,99354.00
2023-04-07T16:41:45.787Z,99352.34
2023-04-07T16:44:12.261Z,99358.72
2023-04-07T16:46:38.682Z,99358.19
2023-04-07T16:49:05.411Z,99357.66
2023-04-07T16:51:31.855Z,99374.09
2023-04-07T16:53:58.373Z,99373.22
2023-04-07T16:56:25.293Z,99379.00
2023-04-07T16:58:51.752Z,99370.59
2023-04-07T17:01:18.700Z,99375.59
2023-04-07T17:03:48.634Z,99381.38
2023-04-07T17:06:16.466Z,99385.72
2023-04-07T17:08:43.895Z,99385.50
2023-04-07T17:11:13.147Z,99386.41
2023-04-07T17:13:40.275Z,99385.81
2023-04-07T17:16:07.239Z,99397.78
2023-04-07T17:18:33.888Z,99405.91
2023-04-07T17:21:00.573Z,99404.03
2023-04-07T17:23:28.308Z,99404.28
2023-04-07T17:25:54.953Z,99405.66
2023-04-07T17:28:21.414Z,99410.22
2023-04-07T17:30:47.923Z,99412.63
2023-04-07T17:33:14.348Z,99411.41
2023-04-07T17:35:40.760Z,99415.56
2023-04-07T17:38:07.347Z,99421.09
2023-04-07T17:40:34.058Z,99421.00
2023-04-07T17:43:00.522Z,99434.44
2023-04-07T17:45:27.004Z,99447.69
2023-04-07T17:47:54.753Z,99447.47
2023-04-07T17:50:21.240Z,99457.72
2023-04-07T17:52:47.616Z,99455.91
2023-04-07T17:55:14.083Z,99456.06
2023-04-07T17:57:41.766Z,99465.56
2023-04-07T18:00:08.995Z,99470.34
2023-04-07T18:02:35.957Z,99476.06
2023-04-07T18:05:03.275Z,99475.44
2023-04-07T18:07:30.382Z,99480.56
2023-04-07T18:09:57.910Z,99487.78
2023-04-07T18:12:24.593Z,99482.25
2023-04-07T18:14:51.025Z,99488.97
2023-04-07T18:17:17.521Z,99485.47
2023-04-07T18:19:44.266Z,99488.84
2023-04-07T18:22:10.808Z,99493.41
2023-04-07T18:24:37.255Z,99490.06
2023-04-07T18:27:04.024Z,99496.25
2023-04-07T18:29:33.283Z,99498.66
2023-04-07T18:31:59.667Z,99505.88
2023-04-07T18:34:26.223Z,99500.88
2023-04-07T18:36:53.681Z,99507.66
2023-04-07T18:39:20.097Z,99512.09
2023-04-07T18:41:48.201Z,99519.16
2023-04-07T18:44:15.083Z,99512.09
2023-04-07T18:46:41.621Z,99522.16
2023-04-07T18:49:08.365Z,99520.72
2023-04-07T18:51:34.852Z,99528.72
2023-04-07T18:54:01.320Z,99526.91
2023-04-07T18:56:28.443Z,99536.44
2023-04-07T18:58:54.898Z,99537.22
2023-04-07T19:01:21.603Z,99543.50
2023-04-07T19:03:48.834Z,99549.72
2023-04-07T19:06:16.364Z,99547.34
2023-04-07T19:08:43.006Z,99550.72
2023-04-07T19:11:10.127Z,99553.34
2023-04-07T19:13:36.637Z,99553.19
2023-04-07T19:16:03.260Z,99558.91
2023-04-07T19:18:31.613Z,99563.72
2023-04-07T19:20:58.056Z,99557.78
2023-04-07T19:23:24.473Z,99561.63
2023-04-07T19:25:51.629Z,99565.31
2023-04-07T19:28:18.164Z,99566.28
2023-04-07T19:30:44.639Z,99576.28
2023-04-07T19:33:11.760Z,99571.41
2023-04-07T19:35:41.225Z,99577.56
2023-04-07T19:38:07.738Z,99581.56
2023-04-07T19:40:34.290Z,99588.00
2023-04-07T19:43:00.708Z,99579.88
2023-04-07T19:45:27.577Z,99589.38
2023-04-07T19:47:54.517Z,99594.59
2023-04-07T19:50:21.289Z,99594.63
2023-04-07T19:52:47.727Z,99592.16
2023-04-07T19:55:14.402Z,99593.59
2023-04-07T19:57:41.069Z,99602.75
2023-04-07T20:00:09.014Z,99602.25
2023-04-07T20:02:36.774Z,99608.50
2023-04-07T20:05:03.867Z,99613.63
2023-04-07T20:07:31.365Z,99614.00
2023-04-07T20:09:58.035Z,99614.69
2023-04-07T20:12:24.656Z,99618.66
2023-04-07T20:14:51.074Z,99619.34
2023-04-07T20:17:17.574Z,99630.00
2023-04-07T20:19:43.999Z,99622.91
2023-04-07T20:22:10.403Z,99623.69
2023-04-07T20:24:36.912Z,99621.13
2023-04-07T20:27:03.378Z,99633.22
2023-04-07T20:29:29.776Z,99632.03
2023-04-07T20:31:56.245Z,99635.47
2023-04-07T20:34:22.702Z,99634.47
2023-04-07T20:36:49.247Z,99629.16
2023-04-07T20:39:16.465Z,99635.47
2023-04-07T20:41:44.985Z,99631.13
2023-04-07T20:44:12.148Z,99635.66
2023-04-07T20:46:38.684Z,99628.50
2023-04-07T20:49:07.589Z,99629.16
2023-04-07T20:51:36.527Z,99638.66
2023-04-07T20:54:04.532Z,99650.28
2023-04-07T20:56:31.609Z,99645.75
2023-04-07T20:58:58.050Z,99653.41
2023-04-07T21:01:24.582Z,99657.53
2023-04-07T21:03:52.166Z,99651.13
2023-04-07T21:06:18.772Z,99657.72
2023-04-07T21:08:46.007Z,99659.31
2023-04-07T21:11:12.450Z,99654.91
2023-04-07T21:13:38.830Z,99656.56
2023-04-07T21:16:05.685Z,99654.91
2023-04-07T21:18:33.305Z,99659.91
2023-04-07T21:20:59.858Z,99652.66
2023-04-07T21:23:26.369Z,99657.06
2023-04-07T21:25:52.737Z,99664.91
2023-04-07T21:28:19.147Z,99653.94
2023-04-07T21:30:45.745Z,99650.78
2023-04-07T21:33:13.460Z,99651.25
2023-04-07T21:35:39.946Z,99656.56
2023-04-07T21:38:06.386Z,99654.81
2023-04-07T21:40:32.837Z,99647.81
2023-04-07T21:42:59.315Z,99654.22
2023-04-07T21:45:25.796Z,99651.84
2023-04-07T21:47:52.243Z,99645.00
2023-04-07T21:50:18.825Z,99649.78
2023-04-07T21:52:45.286Z,99655.78
2023-04-07T21:55:11.782Z,99648.31
2023-04-07T21:57:38.347Z,99649.28
2023-04-07T22:00:08.980Z,99654.78
2023-04-07T22:02:35.807Z,99655.53
2023-04-07T22:05:02.395Z,99658.41
2023-04-07T22:07:28.861Z,99658.28
2023-04-07T22:09:55.660Z,99659.84
2023-04-07T22:12:22.047Z,99669.31
2023-04-07T22:14:48.566Z,99663.25
2023-04-07T22:17:15.585Z,99667.56
2023-04-07T22:19:42.282Z,99670.97
2023-04-07T22:22:08.710Z,99673.13
2023-04-07T22:24:35.441Z,99674.34
2023-04-07T22:27:02.247Z,99675.97
2023-04-07T22:29:28.775Z,99671.00
2023-04-07T22:31:55.278Z,99675.03
2023-04-07T22:34:21.925Z,99670.50
2023-04-07T22:36:48.380Z,99676.44
2023-04-07T22:39:14.815Z,99682.28
2023-04-07T22:41:41.213Z,99685.34
2023-04-07T22:44:07.706Z,99687.59
2023-04-07T22:46:34.218Z,99694.97
2023-04-07T22:49:00.738Z,99693.69
2023-04-07T22:51:29.288Z,99690.91
2023-04-07T22:53:55.702Z,99698.28
2023-04-07T22:56:22.229Z,99693.22
2023-04-07T22:58:48.735Z,99694.78
2023-04-07T23:01:15.608Z,99708.69
2023-04-07T23:03:42.481Z,99707.97
2023-04-07T23:06:09.024Z,99708.06
2023-04-07T23:08:35.558Z,99706.56
2023-04-07T23:11:02.092Z,99710.97
2023-04-07T23:13:28.547Z,99704.72
2023-04-07T23:15:54.971Z,99699.94
2023-04-07T23:18:21.385Z,99700.56
2023-04-07T23:20:55.286Z,99703.75
2023-04-07T23:23:22.152Z,99712.50
2023-04-07T23:25:48.716Z,99709.28
2023-04-07T23:28:15.452Z,99703.25
2023-04-07T23:30:41.942Z,99704.25
2023-04-07T23:33:08.448Z,99706.91
2023-04-07T23:35:34.937Z,99711.13
2023-04-07T23:38:01.531Z,99711.59
2023-04-07T23:40:27.964Z,99706.84
2023-04-07T23:42:54.462Z,99706.22
2023-04-07T23:45:20.958Z,99704.00
2023-04-07T23:47:47.398Z,99711.75
2023-04-07T23:50:13.972Z,99716.78
2023-04-07T23:52:40.950Z,99715.81
2023-04-07T23:55:07.699Z,99715.78
2023-04-07T23:57:34.158Z,99711.31
